createdAt,value
2023-02-22T00:08:40.770Z,27.52
2023-02-22T00:11:08.636Z,26.83
2023-02-22T00:13:36.825Z,27.92
2023-02-22T00:40:23.421Z,25.90
2023-02-22T00:42:50.948Z,28.50
2023-02-22T02:11:33.943Z,17.15
2023-02-22T03:41:48.973Z,16.85
2023-02-22T07:56:47.914Z,30.55
2023-02-22T07:59:15.230Z,28.85
2023-02-22T08:01:41.766Z,31.35
2023-02-22T08:15:29.914Z,29.92
2023-02-22T08:17:57.506Z,31.23
2023-02-22T08:20:24.440Z,30.17
2023-02-22T08:22:51.488Z,30.88
2023-02-22T08:25:20.351Z,30.35
2023-02-22T08:27:46.759Z,30.83
2023-02-22T08:30:20.597Z,29.95
2023-02-22T08:32:48.239Z,30.50
2023-02-22T08:47:26.937Z,31.77
2023-02-22T08:49:53.516Z,31.05
2023-02-22T08:52:21.591Z,30.05
2023-02-22T09:41:36.255Z,25.48
2023-02-22T09:58:28.696Z,25.45
2023-02-22T10:00:59.584Z,22.92
2023-02-22T10:03:38.685Z,22.00
2023-02-22T10:20:42.831Z,22.38
2023-02-22T10:23:38.108Z,22.92
2023-02-22T11:10:38.637Z,19.52
2023-02-22T11:13:17.994Z,20.80
2023-02-22T11:27:01.544Z,20.25
2023-02-22T11:29:33.791Z,18.65
2023-02-22T11:32:13.463Z,18.88
2023-02-22T11:34:42.632Z,18.83
2023-02-22T11:52:16.683Z,16.42
2023-02-22T11:58:19.923Z,16.23
2023-02-22T12:01:11.843Z,15.90
2023-02-22T12:03:53.446Z,15.47
2023-02-22T13:03:28.692Z,9.27
2023-02-22T13:06:21.167Z,9.45
2023-02-22T13:09:17.201Z,10.60
2023-02-22T13:12:11.688Z,9.93
2023-02-22T14:03:36.014Z,2.75
2023-02-22T14:08:33.669Z,2.47
2023-02-22T14:11:06.007Z,2.33
2023-02-22T14:16:02.600Z,3.45
2023-02-22T14:18:39.022Z,5.30
2023-02-22T14:24:14.695Z,8.95
2023-02-22T14:26:41.736Z,9.05
2023-02-22T14:29:08.047Z,8.63
2023-02-22T14:31:43.332Z,9.00
2023-02-22T14:34:20.233Z,9.23
2023-02-22T14:36:54.792Z,9.40
2023-02-22T14:39:58.769Z,9.30
2023-02-22T14:42:28.493Z,9.50
2023-02-22T14:45:02.548Z,9.52
2023-02-22T14:47:32.167Z,9.77
2023-02-22T14:50:08.214Z,10.77
2023-02-22T14:52:37.066Z,9.27
2023-02-22T14:55:16.605Z,9.80
2023-02-22T14:58:01.400Z,10.23
2023-02-22T15:00:37.461Z,10.05
2023-02-22T15:03:04.863Z,9.43
2023-02-22T15:05:40.661Z,10.00
2023-02-22T15:08:09.057Z,10.18
2023-02-22T15:10:45.904Z,9.98
2023-02-22T15:13:23.681Z,9.38
2023-02-22T15:16:00.359Z,9.48
2023-02-22T15:18:33.010Z,9.80
2023-02-22T15:21:11.563Z,10.07
2023-02-22T15:23:47.698Z,10.13
2023-02-22T15:26:51.823Z,10.15
2023-02-22T15:29:21.416Z,9.70
2023-02-22T15:31:48.676Z,9.70
2023-02-22T15:34:15.045Z,9.52
2023-02-22T15:36:42.683Z,9.75
2023-02-22T15:39:19.721Z,9.35
2023-02-22T15:41:46.323Z,8.18
2023-02-22T15:44:28.002Z,7.32
2023-02-22T15:46:56.406Z,7.50
2023-02-22T15:49:23.602Z,7.28
2023-02-22T15:52:02.634Z,6.70
2023-02-22T15:54:31.207Z,6.63
2023-02-22T15:56:57.576Z,7.65
2023-02-22T15:59:30.226Z,7.05
2023-02-22T16:01:58.554Z,7.03
2023-02-22T16:04:27.850Z,6.93
2023-02-22T16:07:03.726Z,6.70
2023-02-22T16:09:30.364Z,7.35
2023-02-22T16:12:22.351Z,6.95
2023-02-22T16:14:49.940Z,7.50
2023-02-22T16:17:28.737Z,7.53
2023-02-22T16:19:55.495Z,7.28
2023-02-22T16:22:26.789Z,7.43
2023-02-22T16:25:01.555Z,7.57
2023-02-22T16:27:28.059Z,7.72
2023-02-22T16:30:23.389Z,7.00
2023-02-22T16:32:51.340Z,7.28
2023-02-22T16:35:20.594Z,7.30
2023-02-22T16:37:48.867Z,6.93
2023-02-22T16:40:25.336Z,7.88
2023-02-22T16:42:54.223Z,7.75
2023-02-22T16:45:21.942Z,8.32
2023-02-22T16:47:53.539Z,9.45
2023-02-22T16:50:21.902Z,11.07
2023-02-22T16:52:48.450Z,11.32
2023-02-22T16:55:16.845Z,12.20
2023-02-22T16:57:43.526Z,12.65
2023-02-22T17:00:20.599Z,12.40
2023-02-22T17:02:47.834Z,12.32
2023-02-22T17:05:15.955Z,11.25
2023-02-22T17:07:42.534Z,10.50
2023-02-22T17:10:16.256Z,9.38
2023-02-22T17:12:45.548Z,9.90
2023-02-22T17:15:21.240Z,9.38
2023-02-22T17:17:48.428Z,9.15
2023-02-22T17:20:14.848Z,9.75
2023-02-22T17:22:41.245Z,10.25
2023-02-22T17:25:22.429Z,11.85
2023-02-22T17:27:48.820Z,10.98
2023-02-22T17:30:17.132Z,11.98
2023-02-22T17:32:43.994Z,10.82
2023-02-22T17:35:10.513Z,11.50
2023-02-22T17:37:38.390Z,9.77
2023-02-22T17:40:10.410Z,10.27
2023-02-22T17:42:37.049Z,10.20
2023-02-22T17:45:03.940Z,10.90
2023-02-22T17:47:30.637Z,10.82
2023-02-22T17:49:57.996Z,10.38
2023-02-22T17:52:32.759Z,10.45
2023-02-22T17:57:43.927Z,11.80
2023-02-22T18:00:12.904Z,11.10
2023-02-22T18:02:43.244Z,10.15
2023-02-22T18:05:20.373Z,9.50
2023-02-22T18:07:46.949Z,9.55
2023-02-22T18:10:13.500Z,9.63
2023-02-22T18:12:40.274Z,10.05
2023-02-22T18:15:08.970Z,9.68
2023-02-22T18:17:36.953Z,10.70
2023-02-22T18:20:11.936Z,11.68
2023-02-22T18:22:41.992Z,12.52
2023-02-22T18:25:09.599Z,11.55
2023-02-22T18:27:36.170Z,12.00
2023-02-22T18:30:02.608Z,11.00
2023-02-22T18:32:31.784Z,10.68
2023-02-22T18:34:58.471Z,10.77
2023-02-22T18:37:28.046Z,10.60
2023-02-22T18:39:55.529Z,10.10
2023-02-22T18:42:31.356Z,10.38
2023-02-22T18:45:00.648Z,10.02
2023-02-22T18:47:27.358Z,9.65
2023-02-22T18:49:53.926Z,8.70
2023-02-22T18:52:20.344Z,8.88
2023-02-22T18:54:47.299Z,8.35
2023-02-22T18:57:13.713Z,9.07
2023-02-22T18:59:40.926Z,8.20
2023-02-22T19:02:12.716Z,8.60
2023-02-22T19:04:39.641Z,8.38
2023-02-22T19:07:06.384Z,7.75
2023-02-22T19:09:32.770Z,8.60
2023-02-22T19:11:59.167Z,7.70
2023-02-22T19:14:25.676Z,7.90
2023-02-22T19:16:52.234Z,8.18
2023-02-22T19:19:21.571Z,8.07
2023-02-22T19:21:49.224Z,7.65
2023-02-22T19:24:18.773Z,7.70
2023-02-22T19:26:53.535Z,7.68
2023-02-22T19:29:23.814Z,7.72
2023-02-22T19:31:53.708Z,7.80
2023-02-22T19:44:55.504Z,7.78
2023-02-22T19:47:22.507Z,7.90
2023-02-22T19:49:50.043Z,7.32
2023-02-22T19:52:16.625Z,7.85
2023-02-22T19:54:44.370Z,7.63
2023-02-22T19:57:11.341Z,7.50
2023-02-22T19:59:37.915Z,7.75
2023-02-22T20:02:04.338Z,7.85
2023-02-22T20:04:30.855Z,7.72
2023-02-22T20:07:01.997Z,7.45
2023-02-22T20:09:30.159Z,7.68
2023-02-22T20:11:56.893Z,7.93
2023-02-22T20:14:25.968Z,8.07
2023-02-22T20:16:53.216Z,7.40
2023-02-22T20:19:20.946Z,8.20
2023-02-22T20:21:49.462Z,8.23
2023-02-22T20:24:18.119Z,8.30
2023-02-22T20:26:45.206Z,8.07
2023-02-22T20:29:11.801Z,8.43
2023-02-22T20:31:39.780Z,8.45
2023-02-22T20:34:06.492Z,8.60
2023-02-22T20:36:37.338Z,7.97
2023-02-22T20:39:07.409Z,7.95
2023-02-22T20:41:35.452Z,8.63
2023-02-22T20:44:02.702Z,8.38
2023-02-22T20:46:36.102Z,8.98
2023-02-22T20:49:04.808Z,9.05
2023-02-22T20:51:31.418Z,8.77
2023-02-22T20:53:59.842Z,9.20
2023-02-22T20:56:27.459Z,9.23
2023-02-22T20:58:59.906Z,9.23
2023-02-22T21:03:52.672Z,9.38
2023-02-22T21:06:21.255Z,9.25
2023-02-22T21:08:53.669Z,9.55
2023-02-22T21:11:21.323Z,9.50
2023-02-22T21:13:47.818Z,9.95
2023-02-22T21:16:21.938Z,8.95
2023-02-22T21:18:58.612Z,9.98
2023-02-22T21:21:29.805Z,11.60
2023-02-22T21:24:01.440Z,11.60
2023-02-22T21:26:30.254Z,11.87
2023-02-22T21:29:01.945Z,11.95
2023-02-22T21:31:28.520Z,11.23
2023-02-22T21:33:56.510Z,11.60
2023-02-22T21:36:25.322Z,12.45
2023-02-22T21:38:54.668Z,14.60
2023-02-22T21:41:23.560Z,14.07
2023-02-22T21:43:51.272Z,14.82
2023-02-22T21:46:18.282Z,15.25
2023-02-22T21:48:48.289Z,15.93
2023-02-22T21:51:20.946Z,15.63
2023-02-22T21:53:49.077Z,15.10
2023-02-22T21:56:20.205Z,13.68
2023-02-22T21:58:50.101Z,13.65
2023-02-22T22:01:19.705Z,13.70
2023-02-22T22:03:46.752Z,14.45
2023-02-22T22:06:14.200Z,13.32
2023-02-22T22:08:42.170Z,13.70
2023-02-22T22:11:10.479Z,12.98
2023-02-22T22:13:39.209Z,14.10
2023-02-22T22:16:11.894Z,14.63
2023-02-22T22:18:39.416Z,14.45
2023-02-22T22:21:18.010Z,15.18
2023-02-22T22:23:47.052Z,14.82
2023-02-22T22:26:16.581Z,15.95
2023-02-22T22:28:46.023Z,16.10
2023-02-22T22:31:14.261Z,16.55
2023-02-22T22:33:42.555Z,16.13
2023-02-22T22:36:09.778Z,17.65
2023-02-22T22:38:40.514Z,17.52
2023-02-22T22:41:09.951Z,16.38
2023-02-22T22:43:37.243Z,18.88
2023-02-22T22:46:05.419Z,19.17
2023-02-22T22:48:35.942Z,18.23
2023-02-22T22:51:10.707Z,19.63
2023-02-22T22:53:39.879Z,18.55
2023-02-22T22:56:14.263Z,19.50
2023-02-22T22:58:42.275Z,20.25
2023-02-22T23:01:17.502Z,20.55
2023-02-22T23:03:48.753Z,20.15
2023-02-22T23:06:16.305Z,20.67
2023-02-22T23:08:45.248Z,20.35
2023-02-22T23:11:13.956Z,20.98
2023-02-22T23:13:40.371Z,20.48
2023-02-22T23:16:11.982Z,20.63
2023-02-22T23:18:43.040Z,20.20
2023-02-22T23:21:12.766Z,21.35
2023-02-22T23:23:39.244Z,20.77
2023-02-22T23:26:17.821Z,21.77
2023-02-22T23:28:46.122Z,22.23
2023-02-22T23:31:15.543Z,22.88
2023-02-22T23:33:48.210Z,22.40
2023-02-22T23:36:16.517Z,23.60
2023-02-22T23:38:43.471Z,24.65
2023-02-22T23:41:12.571Z,25.38
2023-02-22T23:43:42.926Z,24.70
2023-02-22T23:46:18.357Z,25.15
2023-02-22T23:48:52.990Z,24.08
2023-02-22T23:51:25.202Z,26.20
2023-02-22T23:53:55.503Z,26.13
2023-02-22T23:56:24.858Z,25.42
2023-02-22T23:58:52.584Z,24.85
